createdAt,value
2023-02-03T00:01:50.524Z,101824.69
2023-02-03T00:04:17.460Z,101826.63
2023-02-03T00:06:44.244Z,101828.50
2023-02-03T00:09:11.020Z,101829.06
2023-02-03T00:11:37.733Z,101848.09
2023-02-03T00:14:05.385Z,101846.44
2023-02-03T00:16:32.008Z,101849.00
2023-02-03T00:18:58.527Z,101843.06
2023-02-03T00:21:25.046Z,101841.94
2023-02-03T00:23:51.659Z,101843.66
2023-02-03T00:26:18.425Z,101838.28
2023-02-03T00:28:45.516Z,101848.91
2023-02-03T00:31:17.222Z,101841.84
2023-02-03T00:33:44.173Z,101842.00
2023-02-03T00:36:11.388Z,101846.03
2023-02-03T00:38:37.950Z,101848.91
2023-02-03T00:41:04.612Z,101842.41
2023-02-03T00:43:31.170Z,101849.91
2023-02-03T00:45:57.782Z,101854.47
2023-02-03T00:48:24.305Z,101858.09
2023-02-03T00:50:50.842Z,101860.69
2023-02-03T00:53:17.388Z,101846.78
2023-02-03T00:55:46.377Z,101837.22
2023-02-03T00:58:12.898Z,101857.97
2023-02-03T01:00:39.776Z,101862.53
2023-02-03T01:03:06.415Z,101867.59
2023-02-03T01:05:32.961Z,101862.28
2023-02-03T01:08:03.520Z,101848.84
2023-02-03T01:10:30.430Z,101869.19
2023-02-03T01:12:56.952Z,101866.78
2023-02-03T01:15:23.559Z,101882.16
2023-02-03T01:17:50.120Z,101883.25
2023-02-03T01:20:17.118Z,101875.53
2023-02-03T01:22:43.845Z,101873.00
2023-02-03T01:25:11.590Z,101863.44
2023-02-03T01:27:38.185Z,101876.16
2023-02-03T01:30:05.241Z,101877.19
2023-02-03T01:32:31.758Z,101881.63
2023-02-03T01:34:58.287Z,101873.63
2023-02-03T01:37:24.778Z,101867.25
2023-02-03T01:39:51.333Z,101866.03
2023-02-03T01:42:17.848Z,101855.50
2023-02-03T01:44:51.177Z,101856.03
2023-02-03T01:47:29.701Z,101833.81
2023-02-03T01:50:22.859Z,101853.88
2023-02-03T01:52:57.032Z,101855.53
2023-02-03T01:55:28.346Z,101857.50
2023-02-03T01:58:20.210Z,101864.91
2023-02-03T02:00:49.296Z,101868.75
2023-02-03T02:03:20.479Z,101865.41
2023-02-03T02:05:57.866Z,101853.94
2023-02-03T02:08:24.825Z,101858.59
2023-02-03T02:10:51.620Z,101860.38
2023-02-03T02:13:19.892Z,101856.78
2023-02-03T02:15:55.584Z,101863.91
2023-02-03T02:18:25.187Z,101848.19
2023-02-03T02:21:28.482Z,101848.13
2023-02-03T02:24:24.529Z,101882.41
2023-02-03T02:27:00.430Z,101880.38
2023-02-03T02:29:35.985Z,101868.59
2023-02-03T02:32:02.577Z,101865.13
2023-02-03T02:34:49.367Z,101877.09
2023-02-03T02:37:38.308Z,101883.22
2023-02-03T02:40:04.784Z,101872.75
2023-02-03T02:43:00.116Z,101890.19
2023-02-03T02:45:34.314Z,101902.47
2023-02-03T02:48:20.691Z,101891.72
2023-02-03T02:50:53.361Z,101902.03
2023-02-03T02:53:22.765Z,101898.34
2023-02-03T02:55:51.606Z,101891.91
2023-02-03T02:58:20.249Z,101905.25
2023-02-03T03:00:47.313Z,101910.72
2023-02-03T03:03:19.518Z,101916.72
2023-02-03T03:05:54.060Z,101919.03
2023-02-03T03:08:29.875Z,101907.94
2023-02-03T03:10:58.362Z,101909.69
2023-02-03T03:13:31.165Z,101931.72
2023-02-03T03:16:01.601Z,101909.78
2023-02-03T03:18:33.506Z,101912.44
2023-02-03T03:21:06.178Z,101908.81
2023-02-03T03:23:40.014Z,101910.50
2023-02-03T03:26:22.569Z,101898.38
2023-02-03T03:28:52.746Z,101893.88
2023-02-03T03:31:20.532Z,101906.56
2023-02-03T03:33:48.414Z,101904.38
2023-02-03T03:36:21.668Z,101913.31
2023-02-03T03:38:56.659Z,101918.78
2023-02-03T03:41:48.172Z,101922.94
2023-02-03T03:44:16.805Z,101916.50
2023-02-03T03:46:50.441Z,101918.91
2023-02-03T03:49:18.890Z,101925.97
2023-02-03T03:51:54.273Z,101941.00
2023-02-03T03:54:23.361Z,101948.03
2023-02-03T03:57:05.537Z,101949.81
2023-02-03T03:59:35.655Z,101956.16
2023-02-03T04:02:04.953Z,101944.88
2023-02-03T04:04:35.637Z,101957.50
2023-02-03T04:07:02.193Z,101952.31
2023-02-03T04:09:28.756Z,101942.53
2023-02-03T04:12:01.297Z,101935.56
2023-02-03T04:14:30.057Z,101939.19
2023-02-03T04:16:57.886Z,101935.97
2023-02-03T04:19:24.599Z,101937.78
2023-02-03T04:21:51.206Z,101940.22
2023-02-03T04:24:18.053Z,101948.97
2023-02-03T04:26:44.701Z,101939.16
2023-02-03T04:29:11.290Z,101939.97
2023-02-03T04:31:38.733Z,101935.63
2023-02-03T04:34:06.068Z,101931.22
2023-02-03T04:36:32.661Z,101926.94
2023-02-03T04:38:59.161Z,101914.84
2023-02-03T04:41:25.678Z,101906.41
2023-02-03T04:43:52.195Z,101906.56
2023-02-03T04:46:19.022Z,101908.53
2023-02-03T04:48:45.560Z,101908.00
2023-02-03T04:51:12.045Z,101911.38
2023-02-03T04:53:38.589Z,101911.13
2023-02-03T04:56:05.450Z,101910.19
2023-02-03T04:58:32.011Z,101908.31
2023-02-03T05:00:58.695Z,101899.31
2023-02-03T05:03:26.450Z,101900.91
2023-02-03T05:05:56.341Z,101892.09
2023-02-03T05:08:22.832Z,101902.78
2023-02-03T05:10:49.382Z,101912.72
2023-02-03T05:13:15.906Z,101900.88
2023-02-03T05:15:42.417Z,101897.22
2023-02-03T05:18:08.931Z,101899.72
2023-02-03T05:20:35.422Z,101904.63
2023-02-03T05:23:02.015Z,101915.16
2023-02-03T05:25:28.618Z,101910.31
2023-02-03T05:27:55.175Z,101917.34
2023-02-03T05:30:21.719Z,101915.97
2023-02-03T05:32:49.888Z,101917.91
2023-02-03T05:35:16.477Z,101912.16
2023-02-03T05:37:46.303Z,101913.78
2023-02-03T05:40:32.520Z,101918.06
2023-02-03T05:42:59.110Z,101915.09
2023-02-03T05:45:25.714Z,101919.75
2023-02-03T05:47:52.269Z,101930.34
2023-02-03T05:50:18.833Z,101928.72
2023-02-03T05:52:45.354Z,101922.09
2023-02-03T05:55:11.911Z,101915.34
2023-02-03T05:57:38.429Z,101916.66
2023-02-03T06:00:07.311Z,101948.13
2023-02-03T06:02:33.820Z,101942.25
2023-02-03T06:05:00.358Z,101938.53
2023-02-03T06:07:26.913Z,101944.63
2023-02-03T06:09:53.634Z,101947.25
2023-02-03T06:12:20.146Z,101946.22
2023-02-03T06:14:46.652Z,101941.72
2023-02-03T06:17:13.168Z,101929.53
2023-02-03T06:19:39.715Z,101934.38
2023-02-03T06:22:06.233Z,101940.41
2023-02-03T06:24:32.729Z,101935.88
2023-02-03T06:26:59.269Z,101937.53
2023-02-03T06:29:25.799Z,101956.72
2023-02-03T06:31:52.516Z,101966.31
2023-02-03T06:34:19.205Z,101970.41
2023-02-03T06:36:45.799Z,101972.16
2023-02-03T06:39:12.300Z,101962.38
2023-02-03T06:41:38.808Z,101962.91
2023-02-03T06:44:05.402Z,101962.59
2023-02-03T06:46:33.847Z,101964.34
2023-02-03T06:49:00.446Z,101979.06
2023-02-03T06:51:27.067Z,102006.03
2023-02-03T06:53:53.585Z,102029.03
2023-02-03T06:56:20.111Z,102024.13
2023-02-03T06:58:46.619Z,102022.69
2023-02-03T07:01:13.232Z,102018.75
2023-02-03T07:03:39.807Z,102026.41
2023-02-03T07:06:06.657Z,102041.09
2023-02-03T07:08:33.451Z,102029.81
2023-02-03T07:11:00.002Z,102041.28
2023-02-03T07:13:26.576Z,102044.38
2023-02-03T07:15:53.188Z,102029.41
2023-02-03T07:18:45.790Z,102027.75
2023-02-03T07:21:11.574Z,102035.50
2023-02-03T07:23:38.086Z,102021.81
2023-02-03T07:26:06.573Z,102027.09
2023-02-03T07:28:34.219Z,102035.41
2023-02-03T07:31:01.180Z,102028.09
2023-02-03T07:33:28.400Z,102056.41
2023-02-03T07:35:56.584Z,102083.22
2023-02-03T07:38:23.922Z,102057.63
2023-02-03T07:40:50.601Z,102069.50
2023-02-03T07:43:17.515Z,102076.31
2023-02-03T07:45:44.629Z,102077.84
2023-02-03T07:48:12.247Z,102082.72
2023-02-03T07:50:39.760Z,102067.84
2023-02-03T07:53:09.285Z,102065.16
2023-02-03T07:55:39.066Z,102076.81
2023-02-03T07:58:06.360Z,102074.53
2023-02-03T08:00:33.463Z,102086.66
2023-02-03T08:03:00.754Z,102063.06
2023-02-03T08:05:27.514Z,102070.97
2023-02-03T08:07:54.188Z,102072.28
2023-02-03T08:10:20.972Z,102075.41
2023-02-03T08:12:48.142Z,102077.97
2023-02-03T08:15:15.174Z,102058.41
2023-02-03T08:17:42.207Z,102069.81
2023-02-03T08:20:10.070Z,102066.75
2023-02-03T08:22:36.625Z,102075.41
2023-02-03T08:25:03.984Z,102076.94
2023-02-03T08:27:31.639Z,102057.66
2023-02-03T08:29:58.581Z,102067.16
2023-02-03T08:32:25.688Z,102065.50
2023-02-03T08:34:52.688Z,102058.81
2023-02-03T08:37:22.676Z,102065.41
2023-02-03T08:39:49.373Z,102050.63
2023-02-03T08:42:16.382Z,102058.75
2023-02-03T08:44:44.113Z,102042.09
2023-02-03T08:47:11.506Z,102051.50
2023-02-03T08:49:39.573Z,102061.69
2023-02-03T08:52:08.483Z,102059.00
2023-02-03T08:54:35.043Z,102070.94
2023-02-03T08:57:01.786Z,102059.69
2023-02-03T08:59:29.290Z,102066.75
2023-02-03T09:01:56.241Z,102088.47
2023-02-03T09:04:25.626Z,102084.84
2023-02-03T09:06:56.229Z,102091.47
2023-02-03T09:09:23.608Z,102087.63
2023-02-03T09:11:50.314Z,102081.56
2023-02-03T09:14:16.826Z,102080.22
2023-02-03T09:16:43.535Z,102074.19
2023-02-03T09:19:10.256Z,102076.34
2023-02-03T09:21:37.534Z,102074.41
2023-02-03T09:24:13.736Z,102078.28
2023-02-03T09:26:40.421Z,102087.78
2023-02-03T09:29:07.813Z,102099.38
2023-02-03T09:31:34.399Z,102105.47
2023-02-03T09:34:00.957Z,102100.44
2023-02-03T09:36:27.478Z,102114.56
2023-02-03T09:38:54.063Z,102118.38
2023-02-03T09:41:37.273Z,102114.56
2023-02-03T09:44:04.782Z,102108.72
2023-02-03T09:46:41.021Z,102100.34
2023-02-03T09:49:33.461Z,102102.03
2023-02-03T09:52:08.685Z,102105.22
2023-02-03T09:54:43.408Z,102098.88
2023-02-03T09:57:18.470Z,102108.03
2023-02-03T09:59:45.029Z,102097.91
2023-02-03T10:02:36.066Z,102088.69
2023-02-03T10:05:25.287Z,102083.19
2023-02-03T10:08:02.453Z,102081.72
2023-02-03T10:10:45.359Z,102087.59
2023-02-03T10:13:17.440Z,102095.81
2023-02-03T10:16:04.157Z,102096.03
2023-02-03T10:18:45.813Z,102104.50
2023-02-03T10:21:35.152Z,102084.16
2023-02-03T10:24:06.113Z,102074.59
2023-02-03T10:26:32.676Z,102077.50
2023-02-03T10:29:21.414Z,102071.47
2023-02-03T10:31:48.517Z,102085.66
2023-02-03T10:34:18.022Z,102080.47
2023-02-03T10:36:57.445Z,102062.78
2023-02-03T10:39:26.758Z,102056.31
2023-02-03T10:41:54.023Z,102057.78
2023-02-03T10:44:24.209Z,102047.41
2023-02-03T10:46:50.791Z,102037.38
2023-02-03T10:49:19.087Z,102017.16
2023-02-03T10:51:51.955Z,102020.69
2023-02-03T10:54:38.174Z,102005.00
2023-02-03T10:57:14.760Z,102004.75
2023-02-03T10:59:44.260Z,101991.81
2023-02-03T11:02:21.603Z,101979.72
2023-02-03T11:04:48.224Z,101989.28
2023-02-03T11:07:26.879Z,101991.59
2023-02-03T11:09:53.277Z,101988.78
2023-02-03T11:12:20.150Z,101992.06
2023-02-03T11:14:51.896Z,101985.31
2023-02-03T11:17:27.520Z,101982.72
2023-02-03T11:20:01.310Z,101981.56
2023-02-03T11:22:35.668Z,101981.59
2023-02-03T11:25:04.971Z,101954.09
2023-02-03T11:27:33.613Z,101969.16
2023-02-03T11:30:18.655Z,101959.03
2023-02-03T11:32:47.976Z,101949.09
2023-02-03T11:35:24.218Z,101965.63
2023-02-03T11:37:56.243Z,101956.50
2023-02-03T11:40:33.859Z,101960.22
2023-02-03T11:43:04.335Z,101948.53
2023-02-03T11:45:44.464Z,101938.44
2023-02-03T11:48:10.971Z,101931.19
2023-02-03T11:50:55.710Z,101915.22
2023-02-03T11:53:55.245Z,101915.22
2023-02-03T11:56:55.114Z,101908.13
2023-02-03T11:59:41.078Z,101906.81
2023-02-03T12:02:33.598Z,101901.28
2023-02-03T12:05:15.358Z,101895.88
2023-02-03T12:07:41.926Z,101890.88
2023-02-03T12:10:30.659Z,101886.19
2023-02-03T12:13:10.410Z,101880.22
2023-02-03T12:15:50.401Z,101869.38
2023-02-03T12:18:26.052Z,101863.41
2023-02-03T12:21:00.946Z,101862.09
2023-02-03T12:24:04.431Z,101844.91
2023-02-03T12:26:41.462Z,101846.34
2023-02-03T12:29:17.032Z,101849.41
2023-02-03T12:32:14.283Z,101839.44
2023-02-03T12:34:50.705Z,101842.97
2023-02-03T12:37:43.869Z,101825.09
2023-02-03T12:40:26.588Z,101806.34
2023-02-03T12:43:02.851Z,101812.13
2023-02-03T12:45:36.611Z,101796.16
2023-02-03T12:48:12.012Z,101775.69
2023-02-03T12:50:54.044Z,101798.16
2023-02-03T12:53:29.178Z,101783.94
2023-02-03T12:56:10.984Z,101782.28
2023-02-03T12:58:57.429Z,101771.75
2023-02-03T13:01:34.438Z,101776.56
2023-02-03T13:04:06.539Z,101769.13
2023-02-03T13:07:03.997Z,101763.94
2023-02-03T13:10:01.549Z,101745.75
2023-02-03T13:12:42.825Z,101745.91
2023-02-03T13:15:27.320Z,101747.63
2023-02-03T13:18:21.920Z,101749.22
2023-02-03T13:20:48.558Z,101750.69
2023-02-03T13:23:16.036Z,101744.16
2023-02-03T13:25:57.834Z,101739.16
2023-02-03T13:29:08.656Z,101735.25
2023-02-03T13:31:56.545Z,101734.28
2023-02-03T13:34:28.857Z,101729.19
2023-02-03T13:37:21.733Z,101721.19
2023-02-03T13:39:48.258Z,101726.06
2023-02-03T13:42:21.533Z,101728.41
2023-02-03T13:44:52.921Z,101737.94
2023-02-03T13:47:25.932Z,101741.59
2023-02-03T13:50:03.099Z,101741.94
2023-02-03T13:52:35.874Z,101735.25
2023-02-03T13:55:03.510Z,101736.47
2023-02-03T13:57:34.604Z,101730.94
2023-02-03T14:00:03.573Z,101729.38
2023-02-03T14:02:42.044Z,101717.03
2023-02-03T14:05:39.303Z,101710.72
2023-02-03T14:08:27.729Z,101715.16
2023-02-03T14:11:31.935Z,101715.66
2023-02-03T14:14:07.579Z,101707.75
2023-02-03T14:16:48.530Z,101695.59
2023-02-03T14:19:30.321Z,101696.72
2023-02-03T14:22:02.717Z,101698.59
2023-02-03T14:24:38.366Z,101712.19
2023-02-03T14:27:23.965Z,101708.41
2023-02-03T14:30:22.835Z,101704.41
2023-02-03T14:32:51.987Z,101695.97
2023-02-03T14:35:40.692Z,101700.41
2023-02-03T14:38:09.192Z,101702.38
2023-02-03T14:40:46.714Z,101697.59
2023-02-03T14:43:38.198Z,101696.50
2023-02-03T14:46:10.717Z,101697.72
2023-02-03T14:48:40.171Z,101701.88
2023-02-03T14:51:29.191Z,101705.81
2023-02-03T14:54:31.032Z,101703.25
2023-02-03T14:57:21.671Z,101694.56
2023-02-03T15:00:06.850Z,101704.69
2023-02-03T15:02:34.631Z,101697.88
2023-02-03T15:05:13.362Z,101705.75
2023-02-03T15:07:48.582Z,101692.56
2023-02-03T15:10:17.352Z,101694.25
2023-02-03T15:12:52.476Z,101685.22
2023-02-03T15:15:22.071Z,101696.44
2023-02-03T15:17:50.204Z,101690.19
2023-02-03T15:20:31.632Z,101680.53
2023-02-03T15:22:58.560Z,101689.06
2023-02-03T15:25:28.009Z,101682.47
2023-02-03T15:27:54.709Z,101698.41
2023-02-03T15:30:27.580Z,101674.97
2023-02-03T15:33:05.413Z,101686.28
2023-02-03T15:35:34.020Z,101684.06
2023-02-03T15:38:04.444Z,101683.75
2023-02-03T15:40:38.583Z,101666.88
2023-02-03T15:43:16.470Z,101676.13
2023-02-03T15:46:03.323Z,101676.72
2023-02-03T15:48:48.070Z,101682.28
2023-02-03T15:51:18.183Z,101671.28
2023-02-03T15:53:52.313Z,101686.75
2023-02-03T15:56:28.420Z,101674.72
2023-02-03T15:58:55.054Z,101676.69
2023-02-03T16:01:24.011Z,101669.63
2023-02-03T16:03:54.189Z,101653.00
2023-02-03T16:06:27.540Z,101667.59
2023-02-03T16:08:55.498Z,101660.25
2023-02-03T16:11:22.178Z,101669.53
2023-02-03T16:13:48.750Z,101652.41
2023-02-03T16:16:18.085Z,101655.31
2023-02-03T16:18:56.959Z,101647.16
2023-02-03T16:21:56.957Z,101641.50
2023-02-03T16:24:32.274Z,101621.38
2023-02-03T16:27:25.045Z,101611.00
2023-02-03T16:30:25.520Z,101602.88
2023-02-03T16:33:32.904Z,101609.53
2023-02-03T16:36:28.320Z,101594.00
2023-02-03T16:39:13.954Z,101592.63
2023-02-03T16:41:59.392Z,101596.66
2023-02-03T16:44:44.784Z,101599.88
2023-02-03T16:47:43.357Z,101612.38
2023-02-03T16:50:40.140Z,101618.91
2023-02-03T16:53:12.509Z,101613.84
2023-02-03T16:55:39.089Z,101615.03
2023-02-03T16:58:05.782Z,101626.69
2023-02-03T17:00:32.583Z,101628.06
2023-02-03T17:03:02.992Z,101621.59
2023-02-03T17:05:32.417Z,101625.00
2023-02-03T17:07:59.192Z,101613.19
2023-02-03T17:10:26.504Z,101626.25
2023-02-03T17:12:53.063Z,101639.72
2023-02-03T17:15:19.611Z,101634.31
2023-02-03T17:17:46.132Z,101613.34
2023-02-03T17:20:12.893Z,101619.22
2023-02-03T17:22:39.506Z,101620.84
2023-02-03T17:25:06.409Z,101604.06
2023-02-03T17:27:33.119Z,101603.19
2023-02-03T17:29:59.709Z,101581.28
2023-02-03T17:32:26.307Z,101581.47
2023-02-03T17:34:52.874Z,101556.81
2023-02-03T17:37:19.420Z,101560.88
2023-02-03T17:53:29.869Z,101534.81
2023-02-03T17:55:56.465Z,101549.09
2023-02-03T17:58:23.084Z,101538.72
2023-02-03T18:00:49.910Z,101531.13
2023-02-03T18:03:16.574Z,101535.84
2023-02-03T18:05:52.683Z,101519.84
2023-02-03T18:08:20.580Z,101513.75
2023-02-03T18:10:51.218Z,101522.41
2023-02-03T18:13:18.371Z,101531.13
2023-02-03T18:15:44.973Z,101527.75
2023-02-03T18:18:11.620Z,101523.00
2023-02-03T18:20:38.231Z,101513.50
2023-02-03T18:23:04.830Z,101514.69
2023-02-03T18:25:31.521Z,101507.00
2023-02-03T18:27:58.245Z,101512.03
2023-02-03T18:30:25.038Z,101503.38
2023-02-03T18:32:52.632Z,101480.25
2023-02-03T18:35:19.527Z,101494.31
2023-02-03T18:37:46.279Z,101494.13
2023-02-03T18:40:13.059Z,101490.53
2023-02-03T18:42:39.754Z,101482.41
2023-02-03T18:45:06.950Z,101486.88
2023-02-03T18:47:34.151Z,101481.00
2023-02-03T18:50:00.911Z,101489.88
2023-02-03T18:52:27.593Z,101489.94
2023-02-03T18:54:54.353Z,101499.06
2023-02-03T18:57:22.571Z,101492.22
2023-02-03T18:59:49.722Z,101485.47
2023-02-03T19:02:16.441Z,101465.00
2023-02-03T19:04:43.477Z,101468.69
2023-02-03T19:07:12.334Z,101460.03
2023-02-03T19:09:40.056Z,101462.31
2023-02-03T19:12:07.872Z,101457.16
2023-02-03T19:14:35.555Z,101426.31
2023-02-03T19:17:03.643Z,101425.41
2023-02-03T19:19:30.393Z,101422.91
2023-02-03T19:21:58.552Z,101419.31
2023-02-03T19:24:26.857Z,101422.91
2023-02-03T19:26:53.877Z,101416.16
2023-02-03T19:29:20.520Z,101411.09
2023-02-03T19:31:47.259Z,101406.75
2023-02-03T19:34:17.388Z,101402.19
2023-02-03T19:36:44.190Z,101395.13
2023-02-03T19:39:11.034Z,101395.22
2023-02-03T19:41:37.594Z,101387.22
2023-02-03T19:44:05.931Z,101388.19
2023-02-03T19:46:38.229Z,101384.84
2023-02-03T19:49:13.249Z,101387.72
2023-02-03T19:51:41.072Z,101380.25
2023-02-03T19:54:10.667Z,101382.38
2023-02-03T19:56:37.367Z,101372.00
2023-02-03T19:59:04.689Z,101366.06
2023-02-03T20:01:31.507Z,101363.50
2023-02-03T20:03:58.560Z,101359.22
2023-02-03T20:06:25.977Z,101371.59
2023-02-03T20:08:52.951Z,101360.94
2023-02-03T20:11:20.420Z,101346.88
2023-02-03T20:13:47.184Z,101341.44
2023-02-03T20:16:14.115Z,101331.00
2023-02-03T20:18:40.885Z,101334.81
2023-02-03T20:21:07.472Z,101336.50
2023-02-03T20:23:34.216Z,101344.69
2023-02-03T20:26:01.685Z,101348.50
2023-02-03T20:28:29.214Z,101355.53
2023-02-03T20:30:58.246Z,101345.06
2023-02-03T20:33:27.574Z,101352.38
2023-02-03T20:35:55.506Z,101348.53
2023-02-03T20:38:22.151Z,101369.56
2023-02-03T20:40:49.317Z,101358.06
2023-02-03T20:43:25.108Z,101349.25
2023-02-03T20:45:52.594Z,101349.16
2023-02-03T20:48:22.422Z,101357.31
2023-02-03T20:50:50.226Z,101327.56
2023-02-03T20:53:19.870Z,101348.19
2023-02-03T20:55:47.290Z,101338.50
2023-02-03T20:58:23.403Z,101342.03
2023-02-03T21:00:50.830Z,101337.75
2023-02-03T21:03:38.256Z,101348.56
2023-02-03T21:06:23.238Z,101352.28
2023-02-03T21:08:49.953Z,101344.47
2023-02-03T21:11:19.243Z,101345.44
2023-02-03T21:13:47.561Z,101356.16
2023-02-03T21:16:28.664Z,101353.59
2023-02-03T21:19:00.409Z,101350.44
2023-02-03T21:21:39.627Z,101359.66
2023-02-03T21:24:29.537Z,101377.38
2023-02-03T21:26:57.520Z,101362.56
2023-02-03T21:29:29.054Z,101365.25
2023-02-03T21:31:56.130Z,101362.56
2023-02-03T21:34:34.390Z,101370.63
2023-02-03T21:37:41.439Z,101364.59
2023-02-03T21:40:18.260Z,101342.34
2023-02-03T21:42:46.547Z,101352.16
2023-02-03T21:45:21.810Z,101349.06
2023-02-03T21:47:51.412Z,101353.91
2023-02-03T21:50:35.900Z,101351.16
2023-02-03T21:53:05.246Z,101355.44
2023-02-03T21:55:31.821Z,101364.44
2023-02-03T21:57:58.522Z,101369.16
2023-02-03T22:00:43.482Z,101363.41
2023-02-03T22:03:22.639Z,101365.31
2023-02-03T22:05:49.301Z,101355.97
2023-02-03T22:08:23.122Z,101349.19
2023-02-03T22:10:50.232Z,101345.91
2023-02-03T22:13:17.882Z,101339.06
2023-02-03T22:15:44.531Z,101354.59
2023-02-03T22:18:11.086Z,101363.09
2023-02-03T22:20:37.583Z,101361.47
2023-02-03T22:23:04.323Z,101348.28
2023-02-03T22:25:30.982Z,101345.63
2023-02-03T22:27:57.680Z,101339.94
2023-02-03T22:30:24.372Z,101347.47
2023-02-03T22:32:50.900Z,101332.94
2023-02-03T22:35:17.511Z,101344.22
2023-02-03T22:37:44.176Z,101363.59
2023-02-03T22:40:11.434Z,101363.94
2023-02-03T22:42:37.922Z,101355.28
2023-02-03T22:45:05.141Z,101345.97
2023-02-03T22:47:31.673Z,101336.59
2023-02-03T22:49:58.238Z,101347.31
2023-02-03T22:52:24.786Z,101356.56
2023-02-03T22:54:51.344Z,101356.22
2023-02-03T22:57:17.940Z,101360.94
2023-02-03T22:59:44.498Z,101357.56
2023-02-03T23:02:11.074Z,101353.13
2023-02-03T23:04:37.648Z,101341.97
2023-02-03T23:07:04.229Z,101333.22
2023-02-03T23:09:30.981Z,101342.41
2023-02-03T23:11:57.616Z,101343.59
2023-02-03T23:14:24.189Z,101324.63
2023-02-03T23:16:50.875Z,101330.34
2023-02-03T23:19:17.505Z,101330.88
2023-02-03T23:21:44.080Z,101327.53
2023-02-03T23:24:10.673Z,101332.56
2023-02-03T23:26:37.205Z,101340.44
2023-02-03T23:29:03.796Z,101334.44
2023-02-03T23:31:30.420Z,101333.84
2023-02-03T23:34:15.714Z,101341.06
2023-02-03T23:36:42.218Z,101344.81
2023-02-03T23:39:08.775Z,101343.22
2023-02-03T23:41:35.433Z,101327.34
2023-02-03T23:44:01.963Z,101330.00
2023-02-03T23:46:28.731Z,101324.00
2023-02-03T23:48:55.319Z,101314.25
2023-02-03T23:51:21.924Z,101306.44
2023-02-03T23:53:48.429Z,101297.13
2023-02-03T23:56:16.112Z,101303.34
2023-02-03T23:58:42.612Z,101297.25
